Time;durP1;ratioP1;P1;durP2;ratioP2;P2;SDS_P1;SDS_P2;PMS_P1;PMS_P2;Temp;Humidity;BMP_temperature;BMP_pressure;BME280_temperature;BME280_humidity;BME280_pressure;Samples;Min_cycle;Max_cycle;Signal;HPM_P1;HPM_P2
2022/11/29 00:03:17;;;;;;;17.37;14.13;;;8.40;99.90;;;;;;10439507;28;20231;-79
2022/11/29 00:08:25;;;;;;;16.23;12.60;;;8.30;99.90;;;;;;10445027;28;20229;-78
2022/11/29 00:13:26;;;;;;;17.43;13.93;;;8.40;99.90;;;;;;10432056;28;20683;-80
2022/11/29 00:18:26;;;;;;;16.57;13.57;;;8.40;99.90;;;;;;10439005;28;20226;-79
2022/11/29 00:23:27;;;;;;;16.47;13.53;;;8.40;99.90;;;;;;10440750;28;20297;-75
2022/11/29 00:28:27;;;;;;;14.20;12.00;;;8.40;99.90;;;;;;10447274;28;20724;-80
2022/11/29 00:33:28;;;;;;;14.20;11.50;;;8.40;99.90;;;;;;10439321;28;20796;-78
2022/11/29 00:38:29;;;;;;;13.67;11.80;;;8.40;99.90;;;;;;10446548;28;20247;-77
2022/11/29 00:43:29;;;;;;;14.97;11.90;;;8.40;99.90;;;;;;10439196;28;20266;-77
2022/11/29 00:48:31;;;;;;;13.67;11.50;;;8.40;99.90;;;;;;10440422;28;20269;-79
2022/11/29 00:53:33;;;;;;;13.17;11.13;;;8.40;99.90;;;;;;10448747;28;20226;-78
2022/11/29 00:58:35;;;;;;;15.83;12.57;;;8.40;99.90;;;;;;10447703;28;20872;-79
2022/11/29 01:03:36;;;;;;;13.87;11.90;;;8.40;99.90;;;;;;10435780;28;20281;-79
2022/11/29 01:08:37;;;;;;;15.57;12.13;;;8.40;99.90;;;;;;10447955;28;20284;-80
2022/11/29 01:13:38;;;;;;;13.10;11.60;;;8.40;99.90;;;;;;10438311;28;20238;-79
2022/11/29 01:18:39;;;;;;;14.93;12.63;;;8.40;99.90;;;;;;10434132;28;20214;-79
2022/11/29 01:23:41;;;;;;;16.23;12.43;;;8.40;99.90;;;;;;10446693;28;20219;-77
2022/11/29 01:28:43;;;;;;;14.57;11.83;;;8.40;99.90;;;;;;10445686;28;20371;-77
2022/11/29 01:33:44;;;;;;;12.27;10.97;;;8.40;99.90;;;;;;10435183;28;20467;-73
2022/11/29 01:38:45;;;;;;;14.27;12.77;;;8.40;99.90;;;;;;10446252;28;20257;-77
2022/11/29 01:43:58;;;;;;;14.67;12.47;;;8.40;99.90;;;;;;10452844;28;20215;-77
2022/11/29 01:49:05;;;;;;;13.70;11.63;;;8.30;99.90;;;;;;10445346;28;20273;-77
2022/11/29 01:54:08;;;;;;;13.40;11.20;;;8.30;99.90;;;;;;10442991;28;20215;-78
2022/11/29 01:59:13;;;;;;;12.53;10.63;;;8.30;99.90;;;;;;10438958;28;20227;-79
2022/11/29 02:04:15;;;;;;;12.97;11.37;;;8.40;99.90;;;;;;10452071;28;20223;-76
2022/11/29 02:09:18;;;;;;;13.93;11.50;;;8.40;99.90;;;;;;10452313;28;20261;-76
2022/11/29 02:14:22;;;;;;;12.00;10.43;;;8.40;99.90;;;;;;10442479;28;20229;-76
2022/11/29 02:19:44;;;;;;;12.37;11.07;;;8.50;99.90;;;;;;10443501;28;20755;-77
2022/11/29 02:25:09;;;;;;;12.83;11.30;;;8.40;99.90;;;;;;10443635;28;20225;-77
2022/11/29 02:30:20;;;;;;;15.47;11.37;;;8.30;99.90;;;;;;10447381;28;20223;-76
2022/11/29 02:36:09;;;;;;;15.93;12.70;;;8.30;99.90;;;;;;10431033;28;20191;-77
2022/11/29 02:42:08;;;;;;;15.53;12.50;;;8.20;99.90;;;;;;10438808;28;20231;-77
2022/11/29 02:47:24;;;;;;;13.60;12.17;;;8.20;99.90;;;;;;10379760;28;20246;-79
2022/11/29 02:53:03;;;;;;;16.43;13.53;;;8.20;99.90;;;;;;10435783;28;20226;-80
2022/11/29 02:58:26;;;;;;;16.20;12.93;;;8.20;99.90;;;;;;10446733;28;20229;-78
2022/11/29 03:03:37;;;;;;;15.53;13.07;;;8.20;99.90;;;;;;10443323;28;20225;-78
2022/11/29 03:08:47;;;;;;;17.60;12.37;;;8.30;99.90;;;;;;10444789;28;20227;-77
2022/11/29 03:14:04;;;;;;;15.57;13.43;;;8.20;99.90;;;;;;10440001;28;20230;-78
2022/11/29 03:19:16;;;;;;;14.10;12.53;;;8.20;99.90;;;;;;10447233;28;20226;-78
2022/11/29 03:24:35;;;;;;;13.90;12.40;;;8.10;99.90;;;;;;10443597;28;20595;-78
2022/11/29 03:29:45;;;;;;;14.90;11.87;;;8.10;99.90;;;;;;10429350;28;20608;-78
2022/11/29 03:35:24;;;;;;;14.80;12.70;;;8.00;99.90;;;;;;10443098;28;20216;-78
2022/11/29 03:40:45;;;;;;;15.03;13.00;;;8.10;99.90;;;;;;10448495;28;20235;-78
2022/11/29 03:46:18;;;;;;;17.20;12.80;;;8.00;99.90;;;;;;10426777;28;20227;-78
2022/11/29 03:51:25;;;;;;;14.87;12.87;;;8.10;99.90;;;;;;10417919;28;20232;-77
2022/11/29 03:56:34;;;;;;;14.27;12.37;;;8.10;99.90;;;;;;10439927;28;20227;-78
2022/11/29 04:01:46;;;;;;;14.57;12.27;;;8.10;99.90;;;;;;10442296;28;20267;-77
2022/11/29 04:06:58;;;;;;;15.80;12.27;;;8.00;99.90;;;;;;10448984;28;20227;-79
2022/11/29 04:12:40;;;;;;;14.33;12.40;;;8.00;99.90;;;;;;10441423;28;20573;-76
2022/11/29 04:17:57;;;;;;;14.30;12.27;;;8.00;99.90;;;;;;10435220;28;20290;-78
2022/11/29 04:23:44;;;;;;;16.70;12.87;;;8.00;99.90;;;;;;10446537;28;20222;-80
2022/11/29 04:29:15;;;;;;;16.13;12.97;;;7.90;99.90;;;;;;10431491;28;20226;-77
2022/11/29 04:34:33;;;;;;;17.50;13.27;;;7.90;99.90;;;;;;10416395;28;20210;-74
2022/11/29 04:39:53;;;;;;;15.80;13.00;;;7.80;99.90;;;;;;10431786;28;20218;-78
2022/11/29 04:45:33;;;;;;;16.70;12.83;;;7.80;99.90;;;;;;10437817;28;20216;-77
2022/11/29 04:50:42;;;;;;;17.97;14.40;;;7.80;99.90;;;;;;10430561;28;20234;-75
2022/11/29 04:56:03;;;;;;;16.77;13.43;;;7.90;99.90;;;;;;10440144;28;20302;-75
2022/11/29 05:01:06;;;;;;;19.77;13.80;;;7.90;99.90;;;;;;10449636;28;20241;-73
2022/11/29 05:06:17;;;;;;;23.10;14.07;;;7.90;99.90;;;;;;10454752;28;20235;-77
2022/11/29 05:11:42;;;;;;;20.40;14.20;;;8.00;99.90;;;;;;10454420;28;20242;-78
2022/11/29 05:17:04;;;;;;;18.47;13.77;;;8.00;99.90;;;;;;10464915;28;20649;-78
2022/11/29 05:22:29;;;;;;;20.20;15.33;;;8.10;99.90;;;;;;10465123;28;20222;-76
2022/11/29 05:27:49;;;;;;;19.57;14.07;;;8.00;99.90;;;;;;10446086;28;20224;-78
2022/11/29 05:33:08;;;;;;;22.53;16.23;;;8.00;99.90;;;;;;10453319;28;20256;-78
2022/11/29 05:38:33;;;;;;;24.47;16.63;;;8.00;99.90;;;;;;10460288;28;20663;-77
2022/11/29 05:43:53;;;;;;;22.97;15.87;;;8.00;99.90;;;;;;10455029;28;20309;-75
2022/11/29 05:49:35;;;;;;;19.73;14.77;;;8.00;99.90;;;;;;10436808;28;20773;-75
2022/11/29 05:54:54;;;;;;;19.37;14.30;;;7.90;99.90;;;;;;10444796;28;20220;-75
2022/11/29 05:59:57;;;;;;;19.40;14.60;;;7.90;99.90;;;;;;10438382;28;20309;-75
2022/11/29 06:05:19;;;;;;;19.83;14.97;;;7.90;99.90;;;;;;10447456;28;20798;-76
2022/11/29 06:10:27;;;;;;;18.40;14.00;;;7.80;99.90;;;;;;10451335;28;20220;-77
2022/11/29 06:15:39;;;;;;;15.73;13.33;;;7.80;99.90;;;;;;10444495;28;20240;-75
2022/11/29 06:20:59;;;;;;;20.17;15.60;;;7.80;99.90;;;;;;10467268;28;20300;-72
2022/11/29 06:26:43;;;;;;;17.00;14.20;;;7.70;99.90;;;;;;10441910;28;20216;-76
2022/11/29 06:32:07;;;;;;;16.87;13.97;;;7.70;99.90;;;;;;10444338;28;20224;-75
2022/11/29 06:37:33;;;;;;;19.73;14.10;;;7.70;99.90;;;;;;10471580;28;20223;-73
2022/11/29 06:42:34;;;;;;;20.50;15.27;;;7.60;99.90;;;;;;10447186;28;20212;-74
2022/11/29 06:47:45;;;;;;;19.90;14.50;;;7.70;99.90;;;;;;10448150;28;20225;-77
2022/11/29 06:52:58;;;;;;;20.90;14.27;;;7.70;99.90;;;;;;10450341;28;20215;-73
2022/11/29 06:58:22;;;;;;;17.53;13.83;;;7.70;99.90;;;;;;10441996;28;20220;-78
2022/11/29 07:03:51;;;;;;;20.67;14.83;;;7.70;99.90;;;;;;10439860;28;20314;-74
2022/11/29 07:08:57;;;;;;;20.27;14.77;;;7.80;99.90;;;;;;10443718;28;20225;-73
2022/11/29 07:13:58;;;;;;;21.47;15.23;;;7.90;99.90;;;;;;10445785;28;20218;-78
2022/11/29 07:19:19;;;;;;;22.77;15.97;;;7.90;99.90;;;;;;10427780;28;20214;-79
2022/11/29 07:24:45;;;;;;;19.57;15.27;;;8.00;99.90;;;;;;10465420;28;20229;-79
2022/11/29 07:30:15;;;;;;;20.83;15.17;;;8.10;99.90;;;;;;10433114;28;21822;-79
2022/11/29 07:35:30;;;;;;;17.97;14.33;;;8.10;99.90;;;;;;10454133;28;20238;-78
2022/11/29 07:40:56;;;;;;;20.83;14.87;;;8.10;99.90;;;;;;10446503;28;20261;-80
2022/11/29 07:45:57;;;;;;;22.27;15.37;;;8.10;99.90;;;;;;10440637;28;20284;-78
2022/11/29 07:50:57;;;;;;;23.90;17.40;;;8.10;99.90;;;;;;10438501;28;20305;-78
2022/11/29 07:55:58;;;;;;;19.23;15.10;;;8.20;99.90;;;;;;10447290;28;20234;-79
2022/11/29 08:00:59;;;;;;;22.57;15.90;;;8.40;99.90;;;;;;10444960;28;20705;-78
2022/11/29 08:06:01;;;;;;;18.43;14.00;;;8.40;99.90;;;;;;10439103;28;20228;-76
2022/11/29 08:11:08;;;;;;;18.27;13.90;;;8.40;99.90;;;;;;10427953;28;20306;-71
2022/11/29 08:16:15;;;;;;;18.33;14.23;;;8.50;99.90;;;;;;10427411;28;20231;-70
2022/11/29 08:21:17;;;;;;;20.23;15.27;;;8.50;99.90;;;;;;10430843;28;20282;-70
2022/11/29 08:26:19;;;;;;;18.70;14.23;;;8.40;99.90;;;;;;10442529;28;20234;-69
2022/11/29 08:31:20;;;;;;;21.40;16.63;;;8.40;99.90;;;;;;10443288;28;20285;-68
2022/11/29 08:36:20;;;;;;;19.00;15.63;;;8.40;99.90;;;;;;10452024;28;20603;-68
2022/11/29 08:41:21;;;;;;;19.00;15.00;;;8.40;99.90;;;;;;10449768;28;20245;-69
2022/11/29 08:47:34;;;;;;;18.80;14.83;;;8.50;99.90;;;;;;10450849;28;20230;-68
2022/11/29 08:51:43;;;;;;;19.67;16.07;;;8.50;99.90;;;;;;10449320;28;20237;-69
2022/11/29 08:56:43;;;;;;;22.77;16.67;;;8.50;99.90;;;;;;10448932;28;20230;-68
2022/11/29 09:01:44;;;;;;;23.50;15.43;;;8.50;99.90;;;;;;10449504;28;20321;-68
2022/11/29 09:06:48;;;;;;;19.97;15.80;;;8.60;99.90;;;;;;10449127;28;20218;-69
2022/11/29 09:11:48;;;;;;;17.40;15.30;;;8.60;99.90;;;;;;10447237;28;20249;-70
2022/11/29 09:16:49;;;;;;;19.50;16.67;;;8.60;99.90;;;;;;10448999;28;20234;-70
2022/11/29 09:21:49;;;;;;;20.73;16.30;;;8.70;99.90;;;;;;10448342;28;20222;-69
2022/11/29 09:26:50;;;;;;;20.13;17.00;;;8.80;99.90;;;;;;10448975;28;20365;-69
2022/11/29 09:31:51;;;;;;;23.10;17.47;;;8.80;99.90;;;;;;10447652;28;20730;-71
2022/11/29 09:36:51;;;;;;;19.20;15.57;;;8.90;99.90;;;;;;10448880;28;20226;-68
2022/11/29 09:42:04;;;;;;;18.57;15.30;;;9.00;99.90;;;;;;10448091;28;20216;-68
2022/11/29 09:47:24;;;;;;;19.07;13.63;;;9.00;99.90;;;;;;10456671;28;20552;-69
2022/11/29 09:52:48;;;;;;;16.87;15.00;;;9.00;99.90;;;;;;10447226;28;20317;-70
2022/11/29 09:57:51;;;;;;;16.10;14.33;;;9.00;99.90;;;;;;10477975;28;20222;-69
2022/11/29 10:03:08;;;;;;;16.80;14.63;;;9.10;99.90;;;;;;10446666;28;20219;-69
2022/11/29 10:08:14;;;;;;;14.70;13.10;;;9.10;99.90;;;;;;10445935;28;20231;-70
2022/11/29 10:13:34;;;;;;;14.87;13.37;;;9.20;99.90;;;;;;10446540;28;20218;-68
2022/11/29 10:18:42;;;;;;;14.60;12.93;;;9.30;99.90;;;;;;10447522;28;20233;-68
2022/11/29 10:23:56;;;;;;;17.07;14.60;;;9.30;99.90;;;;;;10445787;28;20249;-69
2022/11/29 10:28:57;;;;;;;16.80;14.67;;;9.30;99.90;;;;;;10446449;28;20227;-68
2022/11/29 10:34:01;;;;;;;16.30;14.27;;;9.30;99.90;;;;;;10445885;28;20226;-68
2022/11/29 10:39:11;;;;;;;15.33;13.73;;;9.30;99.90;;;;;;10446187;28;20266;-70
2022/11/29 10:44:13;;;;;;;16.77;14.87;;;9.30;99.90;;;;;;10445113;28;20575;-69
2022/11/29 10:49:17;;;;;;;15.83;13.60;;;9.40;99.90;;;;;;10444021;28;20584;-70
2022/11/29 10:54:30;;;;;;;15.47;13.63;;;9.40;99.90;;;;;;10444691;28;20225;-68
2022/11/29 10:59:31;;;;;;;15.67;14.00;;;9.40;99.90;;;;;;10444815;28;20229;-69
2022/11/29 11:04:43;;;;;;;19.10;15.87;;;9.50;99.90;;;;;;10442007;28;20917;-68
2022/11/29 11:09:48;;;;;;;16.33;14.60;;;9.50;99.90;;;;;;10442720;28;20234;-70
2022/11/29 11:14:50;;;;;;;16.83;15.03;;;9.50;99.90;;;;;;10443668;28;20224;-71
2022/11/29 11:19:59;;;;;;;16.77;14.23;;;9.60;99.90;;;;;;10443020;28;20245;-70
2022/11/29 11:25:23;;;;;;;17.57;15.67;;;9.60;99.90;;;;;;10442397;28;20231;-70
2022/11/29 11:30:27;;;;;;;16.93;15.23;;;9.60;99.90;;;;;;10443440;28;20317;-70
2022/11/29 11:35:27;;;;;;;22.20;16.83;;;9.50;99.90;;;;;;10441903;28;20231;-68
2022/11/29 11:40:29;;;;;;;17.17;14.83;;;9.50;99.90;;;;;;10443867;28;20229;-68
2022/11/29 11:45:33;;;;;;;17.20;14.03;;;9.50;99.90;;;;;;10437375;28;20224;-69
2022/11/29 11:50:50;;;;;;;16.33;14.27;;;9.50;99.90;;;;;;10440765;28;20232;-69
2022/11/29 11:55:56;;;;;;;16.70;14.10;;;9.60;99.90;;;;;;10442092;28;20339;-69
2022/11/29 12:00:58;;;;;;;14.50;12.77;;;9.60;99.90;;;;;;10441098;28;20266;-72
2022/11/29 12:06:24;;;;;;;17.73;12.13;;;9.70;99.90;;;;;;10432517;28;20225;-70
2022/11/29 12:11:30;;;;;;;14.10;12.10;;;9.80;99.90;;;;;;10440684;28;20237;-68
2022/11/29 12:16:37;;;;;;;16.60;13.63;;;9.80;99.90;;;;;;10437044;28;20232;-69
2022/11/29 12:21:42;;;;;;;13.40;12.00;;;9.80;99.90;;;;;;10438007;28;20223;-68
2022/11/29 12:26:43;;;;;;;16.10;12.47;;;9.80;99.90;;;;;;10434979;28;20345;-68
2022/11/29 12:31:54;;;;;;;15.13;13.00;;;9.90;99.90;;;;;;10417689;28;20231;-68
2022/11/29 12:37:06;;;;;;;13.90;12.47;;;9.90;99.90;;;;;;10418547;28;20218;-68
2022/11/29 12:42:31;;;;;;;15.40;13.53;;;9.90;99.90;;;;;;10430353;28;20235;-68
2022/11/29 12:47:53;;;;;;;19.43;14.60;;;10.00;99.90;;;;;;10439403;28;20219;-69
2022/11/29 12:53:07;;;;;;;18.13;14.30;;;10.10;99.90;;;;;;10432492;28;20251;-69
2022/11/29 12:58:29;;;;;;;21.63;16.20;;;10.00;99.90;;;;;;10433697;28;20226;-68
2022/11/29 13:03:53;;;;;;;21.07;17.63;;;10.00;99.90;;;;;;10431954;28;20764;-68
2022/11/29 13:09:21;;;;;;;25.57;19.53;;;9.80;99.90;;;;;;10438709;28;20217;-67
2022/11/29 13:14:51;;;;;;;28.53;20.67;;;9.90;99.90;;;;;;10444786;28;20218;-68
2022/11/29 13:19:57;;;;;;;24.93;17.50;;;9.90;99.90;;;;;;10439240;28;20234;-69
2022/11/29 13:25:10;;;;;;;26.17;19.97;;;10.10;99.90;;;;;;10447667;28;20280;-68
2022/11/29 13:30:14;;;;;;;23.70;18.50;;;10.20;99.90;;;;;;10451253;28;20229;-68
2022/11/29 13:35:23;;;;;;;22.67;18.37;;;10.10;99.90;;;;;;10447315;28;20246;-67
2022/11/29 13:40:38;;;;;;;23.30;17.67;;;10.00;99.90;;;;;;10437024;28;20208;-67
2022/11/29 13:45:48;;;;;;;24.17;18.70;;;9.90;99.90;;;;;;10445597;28;20645;-68
2022/11/29 13:50:49;;;;;;;22.33;17.43;;;9.80;99.90;;;;;;10439127;28;20633;-68
2022/11/29 13:56:00;;;;;;;24.67;17.87;;;9.70;99.90;;;;;;10447317;28;20222;-68
2022/11/29 14:01:12;;;;;;;26.50;20.37;;;9.70;99.90;;;;;;10435876;28;20218;-69
2022/11/29 14:06:30;;;;;;;28.97;22.20;;;9.70;99.90;;;;;;10452527;28;20230;-69
2022/11/29 14:11:42;;;;;;;30.30;21.17;;;9.70;99.90;;;;;;10461263;28;20235;-68
2022/11/29 14:16:42;;;;;;;32.07;22.63;;;9.60;99.90;;;;;;10446328;28;20219;-68
2022/11/29 14:22:01;;;;;;;29.33;20.60;;;9.50;99.90;;;;;;10438120;28;20315;-68
2022/11/29 14:27:04;;;;;;;27.87;21.30;;;9.50;99.90;;;;;;10429850;28;20222;-68
2022/11/29 14:32:19;;;;;;;29.67;22.30;;;9.50;99.90;;;;;;10434810;28;20234;-68
2022/11/29 14:37:32;;;;;;;31.93;23.23;;;9.50;99.90;;;;;;10432626;28;20617;-67
2022/11/29 14:42:33;;;;;;;29.73;24.10;;;9.50;99.90;;;;;;10462210;28;20223;-73
2022/11/29 14:47:37;;;;;;;29.20;21.90;;;9.50;99.90;;;;;;10437802;28;20824;-74
2022/11/29 14:52:39;;;;;;;29.70;21.80;;;9.50;99.90;;;;;;10444686;28;20242;-73
2022/11/29 14:57:46;;;;;;;32.57;21.70;;;9.40;99.90;;;;;;10418505;28;20247;-73
2022/11/29 15:03:00;;;;;;;32.50;23.37;;;9.40;99.90;;;;;;10436471;28;20218;-72
2022/11/29 15:08:09;;;;;;;31.07;22.60;;;9.30;99.90;;;;;;10432663;28;20223;-71
2022/11/29 15:13:14;;;;;;;35.43;26.27;;;9.30;99.90;;;;;;10442064;28;20238;-72
2022/11/29 15:18:52;;;;;;;35.50;26.57;;;9.20;99.90;;;;;;10438304;28;20219;-72
2022/11/29 15:24:01;;;;;;;39.67;28.70;;;9.10;99.90;;;;;;10435629;28;20223;-72
2022/11/29 15:29:17;;;;;;;37.10;26.83;;;9.10;99.90;;;;;;10438033;28;20237;-71
2022/11/29 15:34:39;;;;;;;34.40;24.87;;;9.10;99.90;;;;;;10423444;28;20365;-72
2022/11/29 15:39:39;;;;;;;31.87;24.03;;;9.10;99.90;;;;;;10426621;28;20278;-71
2022/11/29 15:44:51;;;;;;;30.90;24.57;;;9.10;99.90;;;;;;10441166;28;20222;-71
2022/11/29 15:49:53;;;;;;;34.53;23.63;;;9.10;99.90;;;;;;10438411;28;20269;-71
2022/11/29 15:54:58;;;;;;;28.87;22.63;;;9.10;99.90;;;;;;10428235;28;20753;-73
2022/11/29 16:00:06;;;;;;;30.77;24.30;;;9.10;99.90;;;;;;10435480;28;20284;-72
2022/11/29 16:05:21;;;;;;;33.63;24.60;;;9.10;99.90;;;;;;10450222;28;20354;-71
2022/11/29 16:10:26;;;;;;;30.97;23.13;;;9.10;99.90;;;;;;10421855;28;20202;-72
2022/11/29 16:15:36;;;;;;;34.63;25.83;;;9.00;99.90;;;;;;10422594;28;20231;-71
2022/11/29 16:20:36;;;;;;;34.63;24.63;;;9.00;99.90;;;;;;10420456;28;20272;-71
2022/11/29 16:26:13;;;;;;;34.50;26.07;;;9.00;99.90;;;;;;10437139;28;20227;-73
2022/11/29 16:31:29;;;;;;;34.57;24.67;;;8.90;99.90;;;;;;10426899;28;20246;-74
2022/11/29 16:36:29;;;;;;;35.37;24.93;;;8.90;99.90;;;;;;10450857;28;20272;-70
2022/11/29 16:41:31;;;;;;;33.07;24.70;;;8.80;99.90;;;;;;10426688;28;20634;-73
2022/11/29 16:46:34;;;;;;;33.87;26.27;;;8.80;99.90;;;;;;10421503;28;20246;-73
2022/11/29 16:51:47;;;;;;;37.30;27.30;;;8.80;99.90;;;;;;10446320;28;20690;-74
2022/11/29 16:56:49;;;;;;;41.07;27.33;;;8.80;99.90;;;;;;10443189;28;20271;-74
2022/11/29 17:01:50;;;;;;;37.13;25.57;;;8.80;99.90;;;;;;10430289;28;20220;-71
2022/11/29 17:06:54;;;;;;;33.10;23.37;;;8.80;99.90;;;;;;10444425;28;20406;-71
2022/11/29 17:11:58;;;;;;;37.30;27.27;;;8.90;99.90;;;;;;10443240;28;20222;-71
2022/11/29 17:17:00;;;;;;;36.67;24.73;;;9.00;99.90;;;;;;10434085;28;20223;-74
2022/11/29 17:22:00;;;;;;;29.77;23.03;;;9.10;99.90;;;;;;10447096;28;20253;-74
2022/11/29 17:27:01;;;;;;;29.73;21.10;;;9.00;99.90;;;;;;10434791;28;20250;-73
2022/11/29 17:32:02;;;;;;;29.70;19.67;;;8.90;99.90;;;;;;10438661;28;20235;-73
2022/11/29 17:37:05;;;;;;;27.87;20.00;;;8.90;99.90;;;;;;10438677;28;20230;-74
2022/11/29 17:42:06;;;;;;;32.43;20.87;;;8.90;99.90;;;;;;10444280;28;20211;-74
2022/11/29 17:47:06;;;;;;;28.33;19.90;;;8.90;99.90;;;;;;10435480;28;20287;-74
2022/11/29 17:52:07;;;;;;;31.80;20.77;;;8.90;99.90;;;;;;10432371;28;20317;-73
2022/11/29 17:57:07;;;;;;;32.00;21.33;;;8.90;99.90;;;;;;10434637;28;20231;-73
2022/11/29 18:02:10;;;;;;;39.63;20.63;;;8.70;99.90;;;;;;10438920;28;20310;-71
2022/11/29 18:07:13;;;;;;;34.20;20.87;;;8.70;99.90;;;;;;10431008;28;20770;-73
2022/11/29 18:12:14;;;;;;;37.13;22.30;;;8.70;99.90;;;;;;10432755;28;20238;-73
2022/11/29 18:17:14;;;;;;;36.77;21.97;;;8.60;99.90;;;;;;10440876;28;20210;-73
2022/11/29 18:22:15;;;;;;;30.30;19.27;;;8.70;99.90;;;;;;10438850;28;20258;-73
2022/11/29 18:27:16;;;;;;;34.13;20.57;;;8.70;99.90;;;;;;10430031;28;20729;-74
2022/11/29 18:32:16;;;;;;;30.30;18.83;;;8.70;99.90;;;;;;10426252;28;20220;-73
2022/11/29 18:37:17;;;;;;;34.23;20.07;;;8.70;99.90;;;;;;10447641;28;20790;-73
2022/11/29 18:42:17;;;;;;;31.80;19.17;;;8.70;99.90;;;;;;10435291;28;20213;-73
2022/11/29 18:47:18;;;;;;;32.90;19.00;;;8.70;99.90;;;;;;10434673;28;20250;-72
2022/11/29 18:52:18;;;;;;;30.40;18.97;;;8.70;99.90;;;;;;10424158;28;20329;-71
2022/11/29 18:57:19;;;;;;;30.63;18.93;;;8.70;99.90;;;;;;10437704;28;20607;-71
2022/11/29 19:02:19;;;;;;;32.57;19.27;;;8.80;99.90;;;;;;10443464;28;20226;-72
2022/11/29 19:07:20;;;;;;;29.80;18.20;;;8.80;99.90;;;;;;10444048;28;20254;-73
2022/11/29 19:12:21;;;;;;;33.07;17.87;;;8.70;99.90;;;;;;10441139;28;20231;-71
2022/11/29 19:17:22;;;;;;;31.50;16.90;;;8.80;99.90;;;;;;10441378;28;20220;-72
2022/11/29 19:22:23;;;;;;;25.20;15.87;;;8.70;99.90;;;;;;10446580;28;20220;-74
2022/11/29 19:27:24;;;;;;;26.80;17.30;;;8.70;99.90;;;;;;10447953;28;21915;-74
2022/11/29 19:32:25;;;;;;;26.13;16.00;;;8.60;99.90;;;;;;10445631;28;20230;-73
2022/11/29 19:37:26;;;;;;;24.43;15.93;;;8.60;99.90;;;;;;10446396;28;20232;-73
2022/11/29 19:42:26;;;;;;;28.20;17.20;;;8.50;99.90;;;;;;10447695;28;20226;-76
2022/11/29 19:47:27;;;;;;;26.63;16.53;;;8.50;99.90;;;;;;10449462;28;20700;-76
2022/11/29 19:52:27;;;;;;;24.00;16.43;;;8.50;99.90;;;;;;10445101;28;20764;-72
2022/11/29 19:57:28;;;;;;;26.07;17.17;;;8.50;99.90;;;;;;10444917;28;20305;-72
2022/11/29 20:02:28;;;;;;;25.50;16.17;;;8.50;99.90;;;;;;10429382;28;20283;-72
2022/11/29 20:07:29;;;;;;;24.10;17.00;;;8.50;99.90;;;;;;10434817;28;20316;-72
2022/11/29 20:12:31;;;;;;;24.07;16.97;;;8.50;99.90;;;;;;10434605;28;20230;-72
2022/11/29 20:17:32;;;;;;;26.73;17.80;;;8.60;99.90;;;;;;10436826;28;20214;-72
2022/11/29 20:22:32;;;;;;;24.33;16.83;;;8.60;99.90;;;;;;10427528;28;20265;-73
2022/11/29 20:27:33;;;;;;;22.57;16.03;;;8.60;99.90;;;;;;10442565;28;20690;-71
2022/11/29 20:32:34;;;;;;;24.80;17.00;;;8.60;99.90;;;;;;10442349;28;20951;-71
2022/11/29 20:37:43;;;;;;;27.37;17.97;;;8.60;99.90;;;;;;10441619;28;20295;-75
2022/11/29 20:43:03;;;;;;;24.20;16.33;;;8.60;99.90;;;;;;10441567;28;20272;-71
2022/11/29 20:48:10;;;;;;;26.43;17.87;;;8.60;99.90;;;;;;10441540;28;20298;-71
2022/11/29 20:53:30;;;;;;;28.17;18.73;;;8.60;99.90;;;;;;10442700;28;20226;-72
2022/11/29 20:58:31;;;;;;;26.33;18.10;;;8.60;99.90;;;;;;10442436;28;20218;-72
2022/11/29 21:03:32;;;;;;;22.00;15.63;;;8.60;99.90;;;;;;10441305;28;20220;-72
2022/11/29 21:08:33;;;;;;;23.03;16.40;;;8.60;99.90;;;;;;10440073;28;20699;-72
2022/11/29 21:13:33;;;;;;;23.40;16.47;;;8.60;99.90;;;;;;10441033;28;20227;-70
2022/11/29 21:18:34;;;;;;;28.70;19.00;;;8.70;99.90;;;;;;10443159;28;20222;-71
2022/11/29 21:23:51;;;;;;;30.53;21.53;;;8.60;99.90;;;;;;10435156;28;20215;-69
2022/11/29 21:29:03;;;;;;;31.43;22.43;;;8.60;99.90;;;;;;10443977;28;20266;-71
2022/11/29 21:34:04;;;;;;;26.17;19.17;;;8.50;99.90;;;;;;10430168;28;20216;-74
2022/11/29 21:39:05;;;;;;;29.33;19.27;;;8.40;99.90;;;;;;10435424;28;20226;-74
2022/11/29 21:44:06;;;;;;;30.13;19.60;;;8.30;99.90;;;;;;10454202;28;20237;-74
2022/11/29 21:49:07;;;;;;;30.30;21.30;;;8.20;99.90;;;;;;10430533;28;20327;-76
2022/11/29 21:54:07;;;;;;;28.63;19.17;;;8.20;99.90;;;;;;10443187;28;20280;-76
2022/11/29 21:59:08;;;;;;;30.20;19.73;;;8.20;99.90;;;;;;10451842;28;20226;-75
2022/11/29 22:04:08;;;;;;;33.70;21.07;;;8.20;99.90;;;;;;10442112;28;20805;-76
2022/11/29 22:09:09;;;;;;;26.67;18.97;;;8.30;99.90;;;;;;10438627;28;20254;-76
2022/11/29 22:14:12;;;;;;;29.07;17.97;;;8.30;99.90;;;;;;10448879;28;20221;-78
2022/11/29 22:19:16;;;;;;;26.67;17.70;;;8.30;99.90;;;;;;10439056;28;20232;-77
2022/11/29 22:24:19;;;;;;;27.83;17.77;;;8.30;99.90;;;;;;10447977;28;20233;-75
2022/11/29 22:29:36;;;;;;;26.30;17.00;;;8.40;99.90;;;;;;10432695;28;20549;-77
2022/11/29 22:34:37;;;;;;;22.30;15.57;;;8.50;99.90;;;;;;10444716;28;20269;-76
2022/11/29 22:39:37;;;;;;;22.67;16.23;;;8.50;99.90;;;;;;10423647;28;20302;-75
2022/11/29 22:44:38;;;;;;;23.60;17.50;;;8.30;99.90;;;;;;10445964;28;20222;-75
2022/11/29 22:49:38;;;;;;;26.83;17.67;;;8.40;99.90;;;;;;10447274;28;20290;-75
2022/11/29 22:54:39;;;;;;;23.37;16.87;;;8.40;99.90;;;;;;10444435;28;20596;-75
2022/11/29 22:59:40;;;;;;;23.13;16.53;;;8.40;99.90;;;;;;10432500;28;20219;-75
2022/11/29 23:04:43;;;;;;;23.47;16.73;;;8.40;99.90;;;;;;10446493;28;20235;-75
2022/11/29 23:10:01;;;;;;;23.90;16.93;;;8.40;99.90;;;;;;10422865;28;20244;-75
2022/11/29 23:15:05;;;;;;;22.10;16.33;;;8.40;99.90;;;;;;10441667;28;20305;-76
2022/11/29 23:20:07;;;;;;;23.17;16.53;;;8.40;99.90;;;;;;10427861;28;20243;-75
2022/11/29 23:25:07;;;;;;;25.03;16.70;;;8.40;99.90;;;;;;10435986;28;20273;-75
2022/11/29 23:30:26;;;;;;;23.80;16.87;;;8.40;99.90;;;;;;10435608;28;20284;-76
2022/11/29 23:35:27;;;;;;;22.17;15.53;;;8.40;99.90;;;;;;10442455;28;20796;-76
2022/11/29 23:40:27;;;;;;;22.57;15.90;;;8.50;99.90;;;;;;10430729;28;20280;-75
2022/11/29 23:45:28;;;;;;;24.30;16.40;;;8.50;99.90;;;;;;10443399;28;20276;-74
2022/11/29 23:50:28;;;;;;;23.53;17.03;;;8.50;99.90;;;;;;10429769;28;20238;-75
2022/11/29 23:55:29;;;;;;;24.80;17.60;;;8.50;99.90;;;;;;10425742;28;20227;-75
